Monroe, South Dakota
Current Conditions -  °F | °C
As of 10:56 PM on Thursday 30 Oct 2014 (Local Time) from KFSD Reporting Station
Broken Clouds Broken Clouds  
Wind Chill: 19°   Ceiling: 3000
Heat Index: 32°   Visibility: 10mi
Dew Point: 21°   Wind: 22mph
Humidity: 64%   Direction: 10°N
Pressure: 30.47"   Gusts: 36mph
Location:  43.49°N, 97.22°W
Report Text: KFSD 310356Z 01019G31KT 10SM BKN030 00/M06 A3047 RMK AO2 PK WND 02031/0351 SLP330 T00001061
Loading
Personal Weather Stations






























Interactive Weather Map
Tropical Storm Tracking
New forecast layout! Learn more

10-Day Weather Forecast

Advertisements
Track Severe Weather on mobile